sensor_id;sensor_type;location;lat;lon;timestamp;P1;durP1;ratioP1;P2;durP2;ratioP2
11924;SDS011;6022;48.768;18.608;2022-12-29T00:01:00;0.27;;;0.27;;
11924;SDS011;6022;48.768;18.608;2022-12-29T00:03:28;0.97;;;0.97;;
11924;SDS011;6022;48.768;18.608;2022-12-29T00:05:56;1.27;;;1.27;;
11924;SDS011;6022;48.768;18.608;2022-12-29T00:08:24;1.97;;;1.87;;
11924;SDS011;6022;48.768;18.608;2022-12-29T00:11:18;0.43;;;0.43;;
11924;SDS011;6022;48.768;18.608;2022-12-29T00:13:49;2.93;;;1.03;;
11924;SDS011;6022;48.768;18.608;2022-12-29T00:16:36;0.87;;;0.87;;
11924;SDS011;6022;48.768;18.608;2022-12-29T00:19:05;2.00;;;0.87;;
11924;SDS011;6022;48.768;18.608;2022-12-29T00:21:32;0.40;;;0.33;;
11924;SDS011;6022;48.768;18.608;2022-12-29T00:24:18;1.17;;;0.37;;
11924;SDS011;6022;48.768;18.608;2022-12-29T00:27:10;2.33;;;0.90;;
11924;SDS011;6022;48.768;18.608;2022-12-29T00:29:58;3.03;;;0.50;;
11924;SDS011;6022;48.768;18.608;2022-12-29T00:32:44;0.73;;;0.73;;
11924;SDS011;6022;48.768;18.608;2022-12-29T00:35:30;0.67;;;0.63;;
11924;SDS011;6022;48.768;18.608;2022-12-29T00:38:05;2.17;;;0.77;;
11924;SDS011;6022;48.768;18.608;2022-12-29T00:40:54;0.40;;;0.40;;
11924;SDS011;6022;48.768;18.608;2022-12-29T00:43:39;1.07;;;1.07;;
11924;SDS011;6022;48.768;18.608;2022-12-29T00:46:26;0.57;;;0.57;;
11924;SDS011;6022;48.768;18.608;2022-12-29T00:48:54;0.83;;;0.83;;
11924;SDS011;6022;48.768;18.608;2022-12-29T00:51:39;10.77;;;1.03;;
11924;SDS011;6022;48.768;18.608;2022-12-29T00:54:09;1.43;;;0.53;;
11924;SDS011;6022;48.768;18.608;2022-12-29T00:56:36;1.57;;;1.23;;
11924;SDS011;6022;48.768;18.608;2022-12-29T00:59:08;1.33;;;0.90;;
11924;SDS011;6022;48.768;18.608;2022-12-29T01:01:36;0.50;;;0.50;;
11924;SDS011;6022;48.768;18.608;2022-12-29T01:04:04;0.73;;;0.73;;
11924;SDS011;6022;48.768;18.608;2022-12-29T01:06:33;1.97;;;0.60;;
11924;SDS011;6022;48.768;18.608;2022-12-29T01:09:04;3.90;;;0.83;;
11924;SDS011;6022;48.768;18.608;2022-12-29T01:11:52;1.40;;;1.30;;
11924;SDS011;6022;48.768;18.608;2022-12-29T01:14:19;0.23;;;0.23;;
11924;SDS011;6022;48.768;18.608;2022-12-29T01:16:48;1.03;;;1.03;;
11924;SDS011;6022;48.768;18.608;2022-12-29T01:19:16;1.07;;;1.07;;
11924;SDS011;6022;48.768;18.608;2022-12-29T01:21:44;1.00;;;1.00;;
11924;SDS011;6022;48.768;18.608;2022-12-29T01:24:13;1.23;;;1.13;;
11924;SDS011;6022;48.768;18.608;2022-12-29T01:26:42;0.90;;;0.90;;
11924;SDS011;6022;48.768;18.608;2022-12-29T01:29:09;0.80;;;0.80;;
11924;SDS011;6022;48.768;18.608;2022-12-29T01:31:37;0.77;;;0.77;;
11924;SDS011;6022;48.768;18.608;2022-12-29T01:34:04;0.30;;;0.30;;
11924;SDS011;6022;48.768;18.608;2022-12-29T01:36:32;0.47;;;0.47;;
11924;SDS011;6022;48.768;18.608;2022-12-29T01:39:00;0.10;;;0.10;;
11924;SDS011;6022;48.768;18.608;2022-12-29T01:41:27;1.17;;;1.13;;
11924;SDS011;6022;48.768;18.608;2022-12-29T01:43:58;0.97;;;0.77;;
11924;SDS011;6022;48.768;18.608;2022-12-29T01:51:38;1.23;;;0.93;;
11924;SDS011;6022;48.768;18.608;2022-12-29T01:54:13;4.00;;;0.40;;
11924;SDS011;6022;48.768;18.608;2022-12-29T01:56:51;0.10;;;0.10;;
11924;SDS011;6022;48.768;18.608;2022-12-29T01:59:22;11.97;;;1.00;;
11924;SDS011;6022;48.768;18.608;2022-12-29T02:01:55;2.00;;;1.90;;
11924;SDS011;6022;48.768;18.608;2022-12-29T02:04:23;1.13;;;1.03;;
11924;SDS011;6022;48.768;18.608;2022-12-29T02:06:54;0.37;;;0.37;;
11924;SDS011;6022;48.768;18.608;2022-12-29T02:09:27;1.83;;;1.73;;
11924;SDS011;6022;48.768;18.608;2022-12-29T02:11:55;1.13;;;0.73;;
11924;SDS011;6022;48.768;18.608;2022-12-29T02:14:24;1.90;;;0.90;;
11924;SDS011;6022;48.768;18.608;2022-12-29T02:25:24;0.70;;;0.27;;
11924;SDS011;6022;48.768;18.608;2022-12-29T02:31:46;0.93;;;0.93;;
11924;SDS011;6022;48.768;18.608;2022-12-29T02:37:50;0.40;;;0.40;;
11924;SDS011;6022;48.768;18.608;2022-12-29T02:40:40;1.47;;;1.23;;
11924;SDS011;6022;48.768;18.608;2022-12-29T02:51:32;3.20;;;1.83;;
11924;SDS011;6022;48.768;18.608;2022-12-29T02:54:27;0.40;;;0.33;;
11924;SDS011;6022;48.768;18.608;2022-12-29T02:57:15;1.03;;;1.03;;
11924;SDS011;6022;48.768;18.608;2022-12-29T03:00:10;0.10;;;0.10;;
11924;SDS011;6022;48.768;18.608;2022-12-29T03:08:34;1.43;;;1.37;;
11924;SDS011;6022;48.768;18.608;2022-12-29T03:11:32;0.60;;;0.47;;
11924;SDS011;6022;48.768;18.608;2022-12-29T03:14:36;0.60;;;0.60;;
11924;SDS011;6022;48.768;18.608;2022-12-29T03:18:05;0.30;;;0.30;;
11924;SDS011;6022;48.768;18.608;2022-12-29T03:20:51;0.77;;;0.77;;
11924;SDS011;6022;48.768;18.608;2022-12-29T03:23:26;1.00;;;1.00;;
11924;SDS011;6022;48.768;18.608;2022-12-29T03:25:57;3.50;;;1.17;;
11924;SDS011;6022;48.768;18.608;2022-12-29T03:28:32;1.83;;;1.27;;
11924;SDS011;6022;48.768;18.608;2022-12-29T03:31:07;0.30;;;0.30;;
11924;SDS011;6022;48.768;18.608;2022-12-29T03:33:37;0.83;;;0.83;;
11924;SDS011;6022;48.768;18.608;2022-12-29T03:36:08;0.97;;;0.97;;
11924;SDS011;6022;48.768;18.608;2022-12-29T03:38:50;0.30;;;0.30;;
11924;SDS011;6022;48.768;18.608;2022-12-29T03:41:29;0.20;;;0.20;;
11924;SDS011;6022;48.768;18.608;2022-12-29T03:43:59;0.83;;;0.63;;
11924;SDS011;6022;48.768;18.608;2022-12-29T03:46:26;0.57;;;0.57;;
11924;SDS011;6022;48.768;18.608;2022-12-29T03:48:53;12.53;;;1.07;;
11924;SDS011;6022;48.768;18.608;2022-12-29T03:51:21;1.10;;;1.10;;
11924;SDS011;6022;48.768;18.608;2022-12-29T03:53:48;1.13;;;0.60;;
11924;SDS011;6022;48.768;18.608;2022-12-29T03:56:15;0.93;;;0.93;;
11924;SDS011;6022;48.768;18.608;2022-12-29T03:58:43;0.80;;;0.80;;
11924;SDS011;6022;48.768;18.608;2022-12-29T04:01:10;1.00;;;1.00;;
11924;SDS011;6022;48.768;18.608;2022-12-29T04:03:38;0.20;;;0.20;;
11924;SDS011;6022;48.768;18.608;2022-12-29T04:06:05;1.50;;;1.43;;
11924;SDS011;6022;48.768;18.608;2022-12-29T04:08:33;0.53;;;0.53;;
11924;SDS011;6022;48.768;18.608;2022-12-29T04:11:01;1.73;;;1.63;;
11924;SDS011;6022;48.768;18.608;2022-12-29T04:13:28;2.27;;;2.13;;
11924;SDS011;6022;48.768;18.608;2022-12-29T04:15:55;2.67;;;1.40;;
11924;SDS011;6022;48.768;18.608;2022-12-29T04:18:22;0.27;;;0.20;;
11924;SDS011;6022;48.768;18.608;2022-12-29T04:20:49;3.03;;;1.23;;
11924;SDS011;6022;48.768;18.608;2022-12-29T04:23:36;0.40;;;0.20;;
11924;SDS011;6022;48.768;18.608;2022-12-29T04:26:05;1.10;;;1.10;;
11924;SDS011;6022;48.768;18.608;2022-12-29T04:28:36;0.50;;;0.50;;
11924;SDS011;6022;48.768;18.608;2022-12-29T04:31:03;1.63;;;1.47;;
11924;SDS011;6022;48.768;18.608;2022-12-29T04:33:31;1.87;;;0.90;;
11924;SDS011;6022;48.768;18.608;2022-12-29T04:35:59;3.93;;;1.23;;
11924;SDS011;6022;48.768;18.608;2022-12-29T04:38:26;0.30;;;0.30;;
11924;SDS011;6022;48.768;18.608;2022-12-29T04:40:54;0.83;;;0.83;;
11924;SDS011;6022;48.768;18.608;2022-12-29T04:43:21;0.57;;;0.57;;
11924;SDS011;6022;48.768;18.608;2022-12-29T04:45:48;0.37;;;0.37;;
11924;SDS011;6022;48.768;18.608;2022-12-29T04:48:15;2.97;;;1.17;;
11924;SDS011;6022;48.768;18.608;2022-12-29T04:50:43;0.70;;;0.70;;
11924;SDS011;6022;48.768;18.608;2022-12-29T04:53:15;2.43;;;1.80;;
11924;SDS011;6022;48.768;18.608;2022-12-29T04:55:44;0.63;;;0.63;;
11924;SDS011;6022;48.768;18.608;2022-12-29T04:58:15;0.67;;;0.67;;
11924;SDS011;6022;48.768;18.608;2022-12-29T05:00:48;2.70;;;1.30;;
11924;SDS011;6022;48.768;18.608;2022-12-29T05:03:17;1.57;;;0.97;;
11924;SDS011;6022;48.768;18.608;2022-12-29T05:05:44;1.43;;;1.33;;
11924;SDS011;6022;48.768;18.608;2022-12-29T05:08:12;2.73;;;1.33;;
11924;SDS011;6022;48.768;18.608;2022-12-29T05:10:39;0.00;;;0.00;;
11924;SDS011;6022;48.768;18.608;2022-12-29T05:13:06;2.03;;;1.00;;
11924;SDS011;6022;48.768;18.608;2022-12-29T05:15:33;0.67;;;0.67;;
11924;SDS011;6022;48.768;18.608;2022-12-29T05:18:01;0.93;;;0.93;;
11924;SDS011;6022;48.768;18.608;2022-12-29T05:20:28;1.93;;;1.83;;
11924;SDS011;6022;48.768;18.608;2022-12-29T05:22:57;1.00;;;0.60;;
11924;SDS011;6022;48.768;18.608;2022-12-29T05:25:28;1.37;;;1.27;;
11924;SDS011;6022;48.768;18.608;2022-12-29T05:28:02;1.00;;;1.00;;
11924;SDS011;6022;48.768;18.608;2022-12-29T05:30:32;1.20;;;1.10;;
11924;SDS011;6022;48.768;18.608;2022-12-29T05:33:00;5.03;;;2.53;;
11924;SDS011;6022;48.768;18.608;2022-12-29T05:35:27;3.60;;;1.40;;
11924;SDS011;6022;48.768;18.608;2022-12-29T05:37:54;1.10;;;0.83;;
11924;SDS011;6022;48.768;18.608;2022-12-29T05:40:21;4.97;;;2.03;;
11924;SDS011;6022;48.768;18.608;2022-12-29T05:42:48;3.30;;;2.03;;
11924;SDS011;6022;48.768;18.608;2022-12-29T05:45:15;2.17;;;1.87;;
11924;SDS011;6022;48.768;18.608;2022-12-29T05:47:46;0.50;;;0.50;;
11924;SDS011;6022;48.768;18.608;2022-12-29T05:50:13;0.80;;;0.77;;
11924;SDS011;6022;48.768;18.608;2022-12-29T05:52:40;3.60;;;1.90;;
11924;SDS011;6022;48.768;18.608;2022-12-29T05:55:07;1.77;;;1.50;;
11924;SDS011;6022;48.768;18.608;2022-12-29T05:57:35;3.17;;;2.50;;
11924;SDS011;6022;48.768;18.608;2022-12-29T06:00:03;10.97;;;2.93;;
11924;SDS011;6022;48.768;18.608;2022-12-29T06:02:32;10.43;;;3.30;;
11924;SDS011;6022;48.768;18.608;2022-12-29T06:05:00;3.50;;;2.53;;
11924;SDS011;6022;48.768;18.608;2022-12-29T06:07:27;1.77;;;1.67;;
11924;SDS011;6022;48.768;18.608;2022-12-29T06:09:54;5.97;;;3.00;;
11924;SDS011;6022;48.768;18.608;2022-12-29T06:12:21;3.03;;;2.87;;
11924;SDS011;6022;48.768;18.608;2022-12-29T06:14:49;4.07;;;3.77;;
11924;SDS011;6022;48.768;18.608;2022-12-29T06:17:16;4.40;;;2.77;;
11924;SDS011;6022;48.768;18.608;2022-12-29T06:19:43;8.37;;;2.80;;
11924;SDS011;6022;48.768;18.608;2022-12-29T06:22:11;6.03;;;3.17;;
11924;SDS011;6022;48.768;18.608;2022-12-29T06:24:38;5.67;;;3.47;;
11924;SDS011;6022;48.768;18.608;2022-12-29T06:27:05;4.77;;;1.43;;
11924;SDS011;6022;48.768;18.608;2022-12-29T06:29:33;1.90;;;1.17;;
11924;SDS011;6022;48.768;18.608;2022-12-29T06:32:01;0.93;;;0.93;;
11924;SDS011;6022;48.768;18.608;2022-12-29T06:34:28;1.77;;;1.67;;
11924;SDS011;6022;48.768;18.608;2022-12-29T06:36:56;2.33;;;1.40;;
11924;SDS011;6022;48.768;18.608;2022-12-29T06:39:23;2.00;;;1.90;;
11924;SDS011;6022;48.768;18.608;2022-12-29T06:41:53;3.30;;;2.20;;
11924;SDS011;6022;48.768;18.608;2022-12-29T06:44:21;3.90;;;1.57;;
11924;SDS011;6022;48.768;18.608;2022-12-29T06:46:48;3.07;;;1.50;;
11924;SDS011;6022;48.768;18.608;2022-12-29T06:49:16;5.93;;;2.20;;
11924;SDS011;6022;48.768;18.608;2022-12-29T06:51:44;4.40;;;2.60;;
11924;SDS011;6022;48.768;18.608;2022-12-29T06:54:11;2.40;;;1.60;;
11924;SDS011;6022;48.768;18.608;2022-12-29T06:56:39;1.00;;;0.73;;
11924;SDS011;6022;48.768;18.608;2022-12-29T06:59:06;4.30;;;1.20;;
11924;SDS011;6022;48.768;18.608;2022-12-29T07:01:35;1.90;;;1.80;;
11924;SDS011;6022;48.768;18.608;2022-12-29T07:04:02;1.23;;;1.17;;
11924;SDS011;6022;48.768;18.608;2022-12-29T07:06:30;3.27;;;2.67;;
11924;SDS011;6022;48.768;18.608;2022-12-29T07:08:57;1.80;;;1.70;;
11924;SDS011;6022;48.768;18.608;2022-12-29T07:11:24;1.73;;;1.27;;
11924;SDS011;6022;48.768;18.608;2022-12-29T07:13:52;1.80;;;1.10;;
11924;SDS011;6022;48.768;18.608;2022-12-29T07:16:19;3.43;;;1.63;;
11924;SDS011;6022;48.768;18.608;2022-12-29T07:18:46;4.10;;;1.70;;
11924;SDS011;6022;48.768;18.608;2022-12-29T07:21:13;2.63;;;1.63;;
11924;SDS011;6022;48.768;18.608;2022-12-29T07:23:42;3.57;;;1.80;;
11924;SDS011;6022;48.768;18.608;2022-12-29T07:26:11;2.00;;;1.90;;
11924;SDS011;6022;48.768;18.608;2022-12-29T07:28:41;3.97;;;1.47;;
11924;SDS011;6022;48.768;18.608;2022-12-29T07:31:27;0.83;;;0.83;;
11924;SDS011;6022;48.768;18.608;2022-12-29T07:33:54;3.07;;;0.77;;
11924;SDS011;6022;48.768;18.608;2022-12-29T07:36:21;3.00;;;1.70;;
11924;SDS011;6022;48.768;18.608;2022-12-29T07:38:52;1.87;;;1.30;;
11924;SDS011;6022;48.768;18.608;2022-12-29T07:41:19;2.33;;;2.23;;
11924;SDS011;6022;48.768;18.608;2022-12-29T07:43:46;3.97;;;2.20;;
11924;SDS011;6022;48.768;18.608;2022-12-29T07:46:15;2.33;;;2.13;;
11924;SDS011;6022;48.768;18.608;2022-12-29T07:49:02;1.70;;;1.60;;
11924;SDS011;6022;48.768;18.608;2022-12-29T07:51:29;5.50;;;3.57;;
11924;SDS011;6022;48.768;18.608;2022-12-29T07:53:58;1.77;;;1.67;;
11924;SDS011;6022;48.768;18.608;2022-12-29T07:56:27;1.90;;;1.43;;
11924;SDS011;6022;48.768;18.608;2022-12-29T07:58:54;2.10;;;1.50;;
11924;SDS011;6022;48.768;18.608;2022-12-29T08:01:21;1.50;;;1.43;;
11924;SDS011;6022;48.768;18.608;2022-12-29T08:03:51;2.17;;;1.33;;
11924;SDS011;6022;48.768;18.608;2022-12-29T08:06:23;1.30;;;1.20;;
11924;SDS011;6022;48.768;18.608;2022-12-29T08:08:50;1.20;;;1.17;;
11924;SDS011;6022;48.768;18.608;2022-12-29T08:11:17;2.67;;;1.93;;
11924;SDS011;6022;48.768;18.608;2022-12-29T08:13:46;0.43;;;0.43;;
11924;SDS011;6022;48.768;18.608;2022-12-29T08:16:13;2.13;;;2.03;;
11924;SDS011;6022;48.768;18.608;2022-12-29T08:18:41;3.47;;;2.17;;
11924;SDS011;6022;48.768;18.608;2022-12-29T08:21:08;2.33;;;1.47;;
11924;SDS011;6022;48.768;18.608;2022-12-29T08:23:36;2.40;;;1.60;;
11924;SDS011;6022;48.768;18.608;2022-12-29T08:26:04;2.07;;;1.47;;
11924;SDS011;6022;48.768;18.608;2022-12-29T08:28:35;1.73;;;1.13;;
11924;SDS011;6022;48.768;18.608;2022-12-29T08:31:02;1.87;;;1.50;;
11924;SDS011;6022;48.768;18.608;2022-12-29T08:33:30;2.63;;;1.70;;
11924;SDS011;6022;48.768;18.608;2022-12-29T08:36:01;3.27;;;2.10;;
11924;SDS011;6022;48.768;18.608;2022-12-29T08:38:31;2.27;;;2.07;;
11924;SDS011;6022;48.768;18.608;2022-12-29T08:40:59;1.47;;;1.37;;
11924;SDS011;6022;48.768;18.608;2022-12-29T08:43:27;1.43;;;1.33;;
11924;SDS011;6022;48.768;18.608;2022-12-29T08:45:54;2.17;;;1.97;;
11924;SDS011;6022;48.768;18.608;2022-12-29T08:48:24;1.03;;;1.03;;
11924;SDS011;6022;48.768;18.608;2022-12-29T08:50:55;7.83;;;2.27;;
11924;SDS011;6022;48.768;18.608;2022-12-29T08:53:23;3.13;;;2.13;;
11924;SDS011;6022;48.768;18.608;2022-12-29T08:55:55;5.27;;;2.43;;
11924;SDS011;6022;48.768;18.608;2022-12-29T08:58:31;1.73;;;1.63;;
11924;SDS011;6022;48.768;18.608;2022-12-29T09:00:58;3.10;;;1.97;;
11924;SDS011;6022;48.768;18.608;2022-12-29T09:03:26;6.33;;;2.47;;
11924;SDS011;6022;48.768;18.608;2022-12-29T09:06:14;4.53;;;2.60;;
11924;SDS011;6022;48.768;18.608;2022-12-29T09:08:43;3.43;;;1.53;;
11924;SDS011;6022;48.768;18.608;2022-12-29T09:11:30;3.20;;;2.40;;
11924;SDS011;6022;48.768;18.608;2022-12-29T09:13:58;2.20;;;1.57;;
11924;SDS011;6022;48.768;18.608;2022-12-29T09:16:25;2.87;;;2.33;;
11924;SDS011;6022;48.768;18.608;2022-12-29T09:18:53;2.63;;;1.40;;
11924;SDS011;6022;48.768;18.608;2022-12-29T09:21:20;3.63;;;2.33;;
11924;SDS011;6022;48.768;18.608;2022-12-29T09:23:48;3.20;;;2.33;;
11924;SDS011;6022;48.768;18.608;2022-12-29T09:26:15;3.37;;;2.60;;
11924;SDS011;6022;48.768;18.608;2022-12-29T09:28:42;3.43;;;2.30;;
11924;SDS011;6022;48.768;18.608;2022-12-29T09:31:10;5.07;;;2.33;;
11924;SDS011;6022;48.768;18.608;2022-12-29T09:33:38;2.93;;;2.13;;
11924;SDS011;6022;48.768;18.608;2022-12-29T09:36:05;8.03;;;2.43;;
11924;SDS011;6022;48.768;18.608;2022-12-29T09:38:34;2.67;;;1.97;;
11924;SDS011;6022;48.768;18.608;2022-12-29T09:41:13;3.47;;;2.40;;
11924;SDS011;6022;48.768;18.608;2022-12-29T09:46:57;2.63;;;2.43;;
11924;SDS011;6022;48.768;18.608;2022-12-29T09:52:16;9.57;;;3.13;;
11924;SDS011;6022;48.768;18.608;2022-12-29T09:54:56;2.30;;;2.13;;
11924;SDS011;6022;48.768;18.608;2022-12-29T10:00:33;4.50;;;2.47;;
11924;SDS011;6022;48.768;18.608;2022-12-29T10:03:20;3.93;;;2.27;;
11924;SDS011;6022;48.768;18.608;2022-12-29T10:17:01;4.73;;;2.50;;
11924;SDS011;6022;48.768;18.608;2022-12-29T10:25:43;2.67;;;2.47;;
11924;SDS011;6022;48.768;18.608;2022-12-29T10:28:22;5.27;;;3.20;;
11924;SDS011;6022;48.768;18.608;2022-12-29T10:31:15;2.47;;;2.07;;
11924;SDS011;6022;48.768;18.608;2022-12-29T10:33:51;5.53;;;2.17;;
11924;SDS011;6022;48.768;18.608;2022-12-29T10:37:05;5.93;;;2.23;;
11924;SDS011;6022;48.768;18.608;2022-12-29T10:39:59;3.33;;;2.73;;
11924;SDS011;6022;48.768;18.608;2022-12-29T10:42:43;3.20;;;2.43;;
11924;SDS011;6022;48.768;18.608;2022-12-29T10:45:19;2.93;;;2.30;;
11924;SDS011;6022;48.768;18.608;2022-12-29T10:48:01;2.43;;;1.93;;
11924;SDS011;6022;48.768;18.608;2022-12-29T10:50:47;9.27;;;2.43;;
11924;SDS011;6022;48.768;18.608;2022-12-29T10:53:30;3.33;;;2.63;;
11924;SDS011;6022;48.768;18.608;2022-12-29T10:56:56;6.17;;;3.80;;
11924;SDS011;6022;48.768;18.608;2022-12-29T10:59:28;3.20;;;2.17;;
11924;SDS011;6022;48.768;18.608;2022-12-29T11:02:06;3.80;;;2.70;;
11924;SDS011;6022;48.768;18.608;2022-12-29T11:08:30;3.20;;;2.50;;
11924;SDS011;6022;48.768;18.608;2022-12-29T11:11:33;3.13;;;2.37;;
11924;SDS011;6022;48.768;18.608;2022-12-29T11:14:10;3.30;;;3.03;;
11924;SDS011;6022;48.768;18.608;2022-12-29T11:16:41;2.70;;;2.50;;
11924;SDS011;6022;48.768;18.608;2022-12-29T11:19:20;4.60;;;3.20;;
11924;SDS011;6022;48.768;18.608;2022-12-29T11:21:50;3.10;;;2.83;;
11924;SDS011;6022;48.768;18.608;2022-12-29T11:27:10;3.50;;;2.37;;
11924;SDS011;6022;48.768;18.608;2022-12-29T11:29:50;2.57;;;2.37;;
11924;SDS011;6022;48.768;18.608;2022-12-29T11:34:56;4.10;;;2.43;;
11924;SDS011;6022;48.768;18.608;2022-12-29T11:37:31;4.33;;;3.40;;
11924;SDS011;6022;48.768;18.608;2022-12-29T11:40:15;2.80;;;2.23;;
11924;SDS011;6022;48.768;18.608;2022-12-29T11:42:48;5.70;;;3.53;;
11924;SDS011;6022;48.768;18.608;2022-12-29T11:45:24;3.13;;;2.67;;
11924;SDS011;6022;48.768;18.608;2022-12-29T11:50:41;4.17;;;2.20;;
11924;SDS011;6022;48.768;18.608;2022-12-29T11:55:55;3.03;;;2.40;;
11924;SDS011;6022;48.768;18.608;2022-12-29T11:58:33;5.47;;;3.10;;
11924;SDS011;6022;48.768;18.608;2022-12-29T12:01:13;6.50;;;2.70;;
11924;SDS011;6022;48.768;18.608;2022-12-29T12:04:03;3.30;;;3.00;;
11924;SDS011;6022;48.768;18.608;2022-12-29T12:06:43;3.60;;;2.60;;
11924;SDS011;6022;48.768;18.608;2022-12-29T12:15:25;2.93;;;2.73;;
11924;SDS011;6022;48.768;18.608;2022-12-29T12:18:12;10.27;;;3.87;;
11924;SDS011;6022;48.768;18.608;2022-12-29T12:21:31;3.80;;;2.80;;
11924;SDS011;6022;48.768;18.608;2022-12-29T12:47:34;4.47;;;3.33;;
11924;SDS011;6022;48.768;18.608;2022-12-29T12:50:41;6.93;;;2.30;;
11924;SDS011;6022;48.768;18.608;2022-12-29T12:53:26;3.70;;;2.47;;
11924;SDS011;6022;48.768;18.608;2022-12-29T13:26:17;3.07;;;2.00;;
11924;SDS011;6022;48.768;18.608;2022-12-29T13:43:51;6.03;;;2.63;;
11924;SDS011;6022;48.768;18.608;2022-12-29T13:46:22;6.53;;;3.50;;
11924;SDS011;6022;48.768;18.608;2022-12-29T13:49:19;4.37;;;2.17;;
11924;SDS011;6022;48.768;18.608;2022-12-29T13:52:03;6.40;;;2.70;;
11924;SDS011;6022;48.768;18.608;2022-12-29T13:58:04;3.23;;;2.93;;
11924;SDS011;6022;48.768;18.608;2022-12-29T14:00:46;3.97;;;2.53;;
11924;SDS011;6022;48.768;18.608;2022-12-29T14:03:45;3.53;;;2.70;;
11924;SDS011;6022;48.768;18.608;2022-12-29T14:09:02;1.83;;;1.70;;
11924;SDS011;6022;48.768;18.608;2022-12-29T14:12:00;2.10;;;1.90;;
11924;SDS011;6022;48.768;18.608;2022-12-29T14:14:28;5.97;;;2.77;;
11924;SDS011;6022;48.768;18.608;2022-12-29T14:17:10;2.63;;;2.43;;
11924;SDS011;6022;48.768;18.608;2022-12-29T14:19:58;3.40;;;2.10;;
11924;SDS011;6022;48.768;18.608;2022-12-29T14:22:33;4.40;;;3.30;;
11924;SDS011;6022;48.768;18.608;2022-12-29T14:28:39;2.50;;;2.40;;
11924;SDS011;6022;48.768;18.608;2022-12-29T14:36:41;8.30;;;3.93;;
11924;SDS011;6022;48.768;18.608;2022-12-29T14:39:42;4.53;;;1.70;;
11924;SDS011;6022;48.768;18.608;2022-12-29T14:42:19;2.67;;;2.33;;
11924;SDS011;6022;48.768;18.608;2022-12-29T14:44:52;2.90;;;2.10;;
11924;SDS011;6022;48.768;18.608;2022-12-29T14:47:50;5.63;;;2.23;;
11924;SDS011;6022;48.768;18.608;2022-12-29T14:51:02;4.93;;;3.80;;
11924;SDS011;6022;48.768;18.608;2022-12-29T14:56:52;1.93;;;1.57;;
11924;SDS011;6022;48.768;18.608;2022-12-29T14:59:25;6.73;;;2.47;;
11924;SDS011;6022;48.768;18.608;2022-12-29T15:01:54;2.90;;;2.60;;
11924;SDS011;6022;48.768;18.608;2022-12-29T15:04:33;2.70;;;2.50;;
11924;SDS011;6022;48.768;18.608;2022-12-29T15:07:12;9.67;;;2.00;;
11924;SDS011;6022;48.768;18.608;2022-12-29T15:09:46;4.70;;;2.67;;
11924;SDS011;6022;48.768;18.608;2022-12-29T15:15:27;2.77;;;1.93;;
11924;SDS011;6022;48.768;18.608;2022-12-29T15:18:10;3.33;;;2.37;;
11924;SDS011;6022;48.768;18.608;2022-12-29T15:20:57;3.80;;;2.63;;
11924;SDS011;6022;48.768;18.608;2022-12-29T15:23:56;2.17;;;1.83;;
11924;SDS011;6022;48.768;18.608;2022-12-29T15:26:38;4.90;;;3.17;;
11924;SDS011;6022;48.768;18.608;2022-12-29T15:34:43;1.23;;;1.23;;
11924;SDS011;6022;48.768;18.608;2022-12-29T15:37:27;3.53;;;2.27;;
11924;SDS011;6022;48.768;18.608;2022-12-29T15:39:59;2.00;;;1.90;;
11924;SDS011;6022;48.768;18.608;2022-12-29T15:45:30;2.73;;;1.80;;
11924;SDS011;6022;48.768;18.608;2022-12-29T15:48:03;3.50;;;1.83;;
11924;SDS011;6022;48.768;18.608;2022-12-29T15:50:40;4.80;;;3.27;;
11924;SDS011;6022;48.768;18.608;2022-12-29T15:53:10;4.07;;;2.90;;
11924;SDS011;6022;48.768;18.608;2022-12-29T15:55:46;4.87;;;3.77;;
11924;SDS011;6022;48.768;18.608;2022-12-29T15:58:25;4.10;;;3.40;;
11924;SDS011;6022;48.768;18.608;2022-12-29T16:01:01;5.27;;;2.77;;
11924;SDS011;6022;48.768;18.608;2022-12-29T16:03:30;16.57;;;2.73;;
11924;SDS011;6022;48.768;18.608;2022-12-29T16:08:56;2.60;;;2.50;;
11924;SDS011;6022;48.768;18.608;2022-12-29T16:11:44;4.23;;;2.60;;
11924;SDS011;6022;48.768;18.608;2022-12-29T16:14:21;1.80;;;1.33;;
11924;SDS011;6022;48.768;18.608;2022-12-29T16:17:01;6.23;;;3.20;;
11924;SDS011;6022;48.768;18.608;2022-12-29T16:19:36;2.47;;;2.27;;
11924;SDS011;6022;48.768;18.608;2022-12-29T16:22:10;4.10;;;2.53;;
11924;SDS011;6022;48.768;18.608;2022-12-29T16:24:55;3.33;;;2.70;;
11924;SDS011;6022;48.768;18.608;2022-12-29T16:27:37;2.17;;;1.80;;
11924;SDS011;6022;48.768;18.608;2022-12-29T16:33:03;2.37;;;2.17;;
11924;SDS011;6022;48.768;18.608;2022-12-29T16:35:45;5.37;;;1.97;;
11924;SDS011;6022;48.768;18.608;2022-12-29T16:38:19;3.03;;;2.80;;
11924;SDS011;6022;48.768;18.608;2022-12-29T16:43:29;5.07;;;2.33;;
11924;SDS011;6022;48.768;18.608;2022-12-29T16:48:33;3.93;;;3.60;;
11924;SDS011;6022;48.768;18.608;2022-12-29T16:51:13;7.23;;;4.13;;
11924;SDS011;6022;48.768;18.608;2022-12-29T16:53:49;4.80;;;3.53;;
11924;SDS011;6022;48.768;18.608;2022-12-29T16:56:24;3.67;;;2.77;;
11924;SDS011;6022;48.768;18.608;2022-12-29T17:01:58;4.00;;;3.70;;
11924;SDS011;6022;48.768;18.608;2022-12-29T17:04:33;7.63;;;5.57;;
11924;SDS011;6022;48.768;18.608;2022-12-29T17:07:00;6.33;;;3.23;;
11924;SDS011;6022;48.768;18.608;2022-12-29T17:09:28;6.47;;;3.13;;
11924;SDS011;6022;48.768;18.608;2022-12-29T17:11:58;6.13;;;4.50;;
11924;SDS011;6022;48.768;18.608;2022-12-29T17:14:38;15.63;;;7.23;;
11924;SDS011;6022;48.768;18.608;2022-12-29T17:20:13;6.23;;;4.53;;
11924;SDS011;6022;48.768;18.608;2022-12-29T17:22:47;11.13;;;3.27;;
11924;SDS011;6022;48.768;18.608;2022-12-29T17:25:18;7.00;;;2.73;;
11924;SDS011;6022;48.768;18.608;2022-12-29T17:30:50;2.40;;;2.27;;
11924;SDS011;6022;48.768;18.608;2022-12-29T17:33:22;2.17;;;1.83;;
11924;SDS011;6022;48.768;18.608;2022-12-29T17:35:52;3.03;;;1.90;;
11924;SDS011;6022;48.768;18.608;2022-12-29T17:38:25;2.87;;;2.50;;
11924;SDS011;6022;48.768;18.608;2022-12-29T17:41:03;4.20;;;3.47;;
11924;SDS011;6022;48.768;18.608;2022-12-29T17:43:41;5.90;;;4.10;;
11924;SDS011;6022;48.768;18.608;2022-12-29T17:46:08;3.53;;;2.43;;
11924;SDS011;6022;48.768;18.608;2022-12-29T17:48:35;6.20;;;3.27;;
11924;SDS011;6022;48.768;18.608;2022-12-29T17:51:02;3.67;;;2.37;;
11924;SDS011;6022;48.768;18.608;2022-12-29T17:53:30;4.63;;;2.07;;
11924;SDS011;6022;48.768;18.608;2022-12-29T17:55:57;3.13;;;2.13;;
11924;SDS011;6022;48.768;18.608;2022-12-29T17:58:25;1.30;;;1.20;;
11924;SDS011;6022;48.768;18.608;2022-12-29T18:00:56;2.40;;;2.03;;
11924;SDS011;6022;48.768;18.608;2022-12-29T18:03:27;2.60;;;1.40;;
11924;SDS011;6022;48.768;18.608;2022-12-29T18:06:08;2.37;;;1.80;;
11924;SDS011;6022;48.768;18.608;2022-12-29T18:08:40;4.50;;;1.90;;
11924;SDS011;6022;48.768;18.608;2022-12-29T18:11:23;1.67;;;1.20;;
11924;SDS011;6022;48.768;18.608;2022-12-29T18:13:53;2.20;;;2.10;;
11924;SDS011;6022;48.768;18.608;2022-12-29T18:16:21;2.67;;;1.73;;
11924;SDS011;6022;48.768;18.608;2022-12-29T18:18:49;2.57;;;2.30;;
11924;SDS011;6022;48.768;18.608;2022-12-29T18:21:20;3.43;;;1.90;;
11924;SDS011;6022;48.768;18.608;2022-12-29T18:23:49;3.33;;;2.77;;
11924;SDS011;6022;48.768;18.608;2022-12-29T18:26:21;4.37;;;2.07;;
11924;SDS011;6022;48.768;18.608;2022-12-29T18:28:54;6.27;;;3.43;;
11924;SDS011;6022;48.768;18.608;2022-12-29T18:31:27;2.93;;;2.80;;
11924;SDS011;6022;48.768;18.608;2022-12-29T18:33:58;2.83;;;2.30;;
11924;SDS011;6022;48.768;18.608;2022-12-29T18:36:38;3.60;;;2.23;;
11924;SDS011;6022;48.768;18.608;2022-12-29T18:39:05;3.27;;;2.33;;
11924;SDS011;6022;48.768;18.608;2022-12-29T18:41:36;3.20;;;2.60;;
11924;SDS011;6022;48.768;18.608;2022-12-29T18:44:09;6.50;;;3.23;;
11924;SDS011;6022;48.768;18.608;2022-12-29T18:46:39;2.90;;;1.23;;
11924;SDS011;6022;48.768;18.608;2022-12-29T18:49:06;5.57;;;3.00;;